createdAt,value
2023-05-09T00:00:00.012Z,95215.00
2023-05-09T00:01:00.057Z,95215.00
2023-05-09T00:02:00.249Z,95217.00
2023-05-09T00:03:00.345Z,95217.00
2023-05-09T00:04:00.291Z,95213.00
2023-05-09T00:05:00.322Z,95213.00
2023-05-09T00:06:00.437Z,95215.00
2023-05-09T00:07:00.415Z,95215.00
2023-05-09T00:08:00.481Z,95213.00
2023-05-09T00:09:00.560Z,95213.00
2023-05-09T00:10:00.594Z,95211.00
2023-05-09T00:11:00.665Z,95211.00
2023-05-09T00:12:00.731Z,95209.00
2023-05-09T00:13:00.875Z,95207.00
2023-05-09T00:14:00.864Z,95204.00
2023-05-09T00:15:00.902Z,95205.00
2023-05-09T00:16:01.006Z,95200.00
2023-05-09T00:17:01.058Z,95200.00
2023-05-09T00:18:01.260Z,95200.00
2023-05-09T00:19:01.175Z,95202.00
2023-05-09T00:20:01.243Z,95198.00
2023-05-09T00:21:01.289Z,95200.00
2023-05-09T00:22:01.426Z,95198.00
2023-05-09T00:23:01.395Z,95198.00
2023-05-09T00:24:01.485Z,95198.00
2023-05-09T00:25:01.581Z,95200.00
2023-05-09T00:26:01.611Z,95200.00
2023-05-09T00:27:01.673Z,95200.00
2023-05-09T00:28:01.724Z,95200.00
2023-05-09T00:29:01.823Z,95200.00
2023-05-09T00:30:01.864Z,95198.00
2023-05-09T00:31:01.930Z,95198.00
2023-05-09T00:32:02.007Z,95198.00
2023-05-09T00:33:02.122Z,95196.00
2023-05-09T00:34:02.125Z,95196.00
2023-05-09T00:35:02.214Z,95192.00
2023-05-09T00:36:02.240Z,95194.00
2023-05-09T00:37:02.330Z,95194.00
2023-05-09T00:38:02.457Z,95196.00
2023-05-09T00:39:02.445Z,95192.00
2023-05-09T00:40:02.558Z,95192.00
2023-05-09T00:41:02.557Z,95192.00
2023-05-09T00:42:02.622Z,95190.00
2023-05-09T00:43:02.729Z,95192.00
2023-05-09T00:44:02.750Z,95188.00
2023-05-09T00:45:02.846Z,95188.00
2023-05-09T00:46:02.937Z,95188.00
2023-05-09T00:47:02.963Z,95186.00
2023-05-09T00:48:03.141Z,95186.00
2023-05-09T00:49:03.054Z,95182.00
2023-05-09T00:50:03.119Z,95182.00
2023-05-09T00:51:03.199Z,95182.00
2023-05-09T00:52:03.226Z,95180.00
2023-05-09T00:53:03.299Z,95180.00
2023-05-09T00:54:03.440Z,95178.00
2023-05-09T00:55:03.433Z,95176.00
2023-05-09T00:56:03.430Z,95178.00
2023-05-09T00:57:03.525Z,95176.00
2023-05-09T00:58:03.597Z,95176.00
2023-05-09T00:59:03.649Z,95174.00
2023-05-09T01:00:03.771Z,95174.00
2023-05-09T01:01:03.852Z,95166.00
2023-05-09T01:02:03.841Z,95176.00
2023-05-09T01:03:03.942Z,95164.00
2023-05-09T01:04:03.942Z,95164.00
2023-05-09T01:05:04.011Z,95174.00
2023-05-09T01:06:04.094Z,95174.00
2023-05-09T01:07:04.122Z,95162.00
2023-05-09T01:08:04.237Z,95160.00
2023-05-09T01:09:04.264Z,95160.00
2023-05-09T01:10:04.407Z,95158.00
2023-05-09T01:11:04.371Z,95156.00
2023-05-09T01:12:04.421Z,95156.00
2023-05-09T01:13:04.524Z,95156.00
2023-05-09T01:14:04.508Z,95154.00
2023-05-09T01:15:04.596Z,95154.00
2023-05-09T01:16:04.647Z,95154.00
2023-05-09T01:17:04.652Z,95154.00
2023-05-09T01:18:04.731Z,95154.00
2023-05-09T01:19:04.714Z,95154.00
2023-05-09T01:20:04.775Z,95151.00
2023-05-09T01:21:04.787Z,95151.00
2023-05-09T01:22:04.888Z,95149.00
2023-05-09T01:23:04.966Z,95149.00
2023-05-09T01:24:04.967Z,95149.00
2023-05-09T01:25:05.034Z,95147.00
2023-05-09T01:26:05.148Z,95149.00
2023-05-09T01:27:05.117Z,95143.00
2023-05-09T01:28:05.193Z,95145.00
2023-05-09T01:29:05.246Z,95145.00
2023-05-09T01:30:05.305Z,95147.00
2023-05-09T01:31:05.477Z,95147.00
2023-05-09T01:32:05.419Z,95147.00
2023-05-09T01:33:05.572Z,95149.00
2023-05-09T01:34:05.681Z,95149.00
2023-05-09T01:35:05.702Z,95149.00
2023-05-09T01:36:05.662Z,95151.00
2023-05-09T01:37:05.741Z,95151.00
2023-05-09T01:38:05.766Z,95149.00
2023-05-09T01:39:05.818Z,95147.00
2023-05-09T01:40:05.894Z,95149.00
2023-05-09T01:41:05.934Z,95147.00
2023-05-09T01:42:06.077Z,95147.00
2023-05-09T01:43:06.044Z,95147.00
2023-05-09T01:44:06.140Z,95147.00
2023-05-09T01:45:06.213Z,95149.00
2023-05-09T01:46:06.291Z,95149.00
2023-05-09T01:47:06.269Z,95147.00
2023-05-09T01:48:06.392Z,95147.00
2023-05-09T01:49:06.365Z,95145.00
2023-05-09T01:50:06.399Z,95145.00
2023-05-09T01:51:06.468Z,95143.00
2023-05-09T01:52:06.529Z,95143.00
2023-05-09T01:53:06.552Z,95143.00
2023-05-09T01:54:06.647Z,95143.00
2023-05-09T01:55:06.656Z,95141.00
2023-05-09T01:56:06.704Z,95145.00
2023-05-09T01:57:06.744Z,95143.00
2023-05-09T01:58:06.861Z,95145.00
2023-05-09T01:59:06.849Z,95141.00
2023-05-09T02:00:06.891Z,95143.00
2023-05-09T02:01:06.958Z,95141.00
2023-05-09T02:02:06.962Z,95141.00
2023-05-09T02:03:07.017Z,95141.00
2023-05-09T02:04:07.004Z,95141.00
2023-05-09T02:05:07.093Z,95137.00
2023-05-09T02:06:07.121Z,95137.00
2023-05-09T02:07:07.158Z,95137.00
2023-05-09T02:08:07.198Z,95133.00
2023-05-09T02:09:07.258Z,95137.00
2023-05-09T02:10:07.319Z,95133.00
2023-05-09T02:11:07.346Z,95137.00
2023-05-09T02:12:07.316Z,95133.00
2023-05-09T02:13:07.364Z,95135.00
2023-05-09T02:14:07.433Z,95135.00
2023-05-09T02:15:07.394Z,95135.00
2023-05-09T02:16:07.465Z,95133.00
2023-05-09T02:17:07.432Z,95133.00
2023-05-09T02:18:07.506Z,95129.00
2023-05-09T02:19:07.485Z,95127.00
2023-05-09T02:20:07.495Z,95127.00
2023-05-09T02:21:07.556Z,95129.00
2023-05-09T02:22:07.605Z,95127.00
2023-05-09T02:23:07.551Z,95125.00
2023-05-09T02:24:07.610Z,95129.00
2023-05-09T02:25:07.650Z,95127.00
2023-05-09T02:26:07.666Z,95127.00
2023-05-09T02:27:07.715Z,95127.00
2023-05-09T02:28:07.769Z,95125.00
2023-05-09T02:29:07.793Z,95125.00
2023-05-09T02:30:07.932Z,95121.00
2023-05-09T02:31:07.872Z,95123.00
2023-05-09T02:32:07.981Z,95119.00
2023-05-09T02:33:07.938Z,95121.00
2023-05-09T02:34:07.927Z,95119.00
2023-05-09T02:35:07.960Z,95117.00
2023-05-09T02:36:07.960Z,95117.00
2023-05-09T02:37:08.013Z,95115.00
2023-05-09T02:38:08.021Z,95113.00
2023-05-09T02:39:08.033Z,95115.00
2023-05-09T02:40:08.022Z,95115.00
2023-05-09T02:41:07.990Z,95115.00
2023-05-09T02:42:08.040Z,95119.00
2023-05-09T02:43:08.054Z,95115.00
2023-05-09T02:44:08.047Z,95117.00
2023-05-09T02:45:08.075Z,95117.00
2023-05-09T02:46:08.167Z,95115.00
2023-05-09T02:47:08.069Z,95117.00
2023-05-09T02:48:09.033Z,95115.00
2023-05-09T02:49:08.119Z,95115.00
2023-05-09T02:50:08.158Z,95113.00
2023-05-09T02:51:08.210Z,95113.00
2023-05-09T02:52:08.237Z,95113.00
2023-05-09T02:53:08.217Z,95111.00
2023-05-09T02:54:08.231Z,95111.00
2023-05-09T02:55:08.274Z,95111.00
2023-05-09T02:56:08.282Z,95109.00
2023-05-09T02:57:08.281Z,95111.00
2023-05-09T02:58:14.014Z,95109.00
2023-05-09T02:59:09.338Z,95107.00
2023-05-09T03:00:08.320Z,95109.00
2023-05-09T03:01:08.365Z,95111.00
2023-05-09T03:02:08.419Z,95111.00
2023-05-09T03:03:08.508Z,95109.00
2023-05-09T03:04:08.310Z,95105.00
2023-05-09T03:05:08.305Z,95104.00
2023-05-09T03:06:08.281Z,95105.00
2023-05-09T03:07:08.245Z,95104.00
2023-05-09T03:08:08.386Z,95105.00
2023-05-09T03:09:08.275Z,95105.00
2023-05-09T03:10:08.288Z,95105.00
2023-05-09T03:11:08.247Z,95102.00
2023-05-09T03:12:08.252Z,95105.00
2023-05-09T03:13:08.301Z,95102.00
2023-05-09T03:14:08.289Z,95104.00
2023-05-09T03:15:08.201Z,95104.00
2023-05-09T03:16:08.242Z,95102.00
2023-05-09T03:17:08.227Z,95104.00
2023-05-09T03:18:08.326Z,95100.00
2023-05-09T03:19:08.242Z,95102.00
2023-05-09T03:20:08.236Z,95100.00
2023-05-09T03:21:08.273Z,95098.00
2023-05-09T03:22:08.320Z,95102.00
2023-05-09T03:23:08.373Z,95100.00
2023-05-09T03:24:08.368Z,95100.00
2023-05-09T03:25:08.365Z,95100.00
2023-05-09T03:26:08.395Z,95100.00
2023-05-09T03:27:08.409Z,95102.00
2023-05-09T03:28:08.464Z,95100.00
2023-05-09T03:29:08.472Z,95100.00
2023-05-09T03:30:08.476Z,95102.00
2023-05-09T03:31:08.521Z,95104.00
2023-05-09T03:32:08.540Z,95102.00
2023-05-09T03:33:08.578Z,95102.00
2023-05-09T03:34:08.667Z,95100.00
2023-05-09T03:35:08.578Z,95096.00
2023-05-09T03:36:08.560Z,95098.00
2023-05-09T03:37:08.638Z,95096.00
2023-05-09T03:38:08.680Z,95096.00
2023-05-09T03:39:08.600Z,95098.00
2023-05-09T03:40:08.668Z,95102.00
2023-05-09T03:41:08.697Z,95100.00
2023-05-09T03:42:08.689Z,95100.00
2023-05-09T03:43:08.717Z,95100.00
2023-05-09T03:44:08.714Z,95104.00
2023-05-09T03:45:08.703Z,95100.00
2023-05-09T03:46:08.749Z,95096.00
2023-05-09T03:47:08.765Z,95098.00
2023-05-09T03:48:08.829Z,95098.00
2023-05-09T03:49:08.772Z,95094.00
2023-05-09T03:50:08.856Z,95094.00
2023-05-09T03:51:08.767Z,95092.00
2023-05-09T03:52:08.782Z,95092.00
2023-05-09T03:53:08.794Z,95092.00
2023-05-09T03:54:08.793Z,95094.00
2023-05-09T03:55:08.766Z,95094.00
2023-05-09T03:56:08.771Z,95096.00
2023-05-09T03:57:08.782Z,95096.00
2023-05-09T03:58:08.781Z,95096.00
2023-05-09T03:59:08.782Z,95098.00
2023-05-09T04:00:08.789Z,95098.00
2023-05-09T04:01:08.788Z,95098.00
2023-05-09T04:02:08.881Z,95098.00
2023-05-09T04:03:09.040Z,95098.00
2023-05-09T04:04:08.954Z,95098.00
2023-05-09T04:05:08.859Z,95098.00
2023-05-09T04:06:09.023Z,95096.00
2023-05-09T04:07:08.961Z,95100.00
2023-05-09T04:08:09.046Z,95096.00
2023-05-09T04:09:09.075Z,95102.00
2023-05-09T04:10:09.160Z,95102.00
2023-05-09T04:11:09.216Z,95096.00
2023-05-09T04:12:09.288Z,95100.00
2023-05-09T04:13:09.320Z,95098.00
2023-05-09T04:14:09.352Z,95100.00
2023-05-09T04:15:09.443Z,95100.00
2023-05-09T04:16:09.500Z,95100.00
2023-05-09T04:17:09.696Z,95100.00
2023-05-09T04:18:09.698Z,95098.00
2023-05-09T04:19:09.683Z,95102.00
2023-05-09T04:20:09.750Z,95098.00
2023-05-09T04:21:09.755Z,95098.00
2023-05-09T04:22:09.928Z,95100.00
2023-05-09T04:23:09.870Z,95098.00
2023-05-09T04:24:09.982Z,95096.00
2023-05-09T04:25:09.991Z,95098.00
2023-05-09T04:26:10.033Z,95098.00
2023-05-09T04:27:10.096Z,95100.00
2023-05-09T04:28:10.134Z,95100.00
2023-05-09T04:29:10.138Z,95102.00
2023-05-09T04:30:10.221Z,95100.00
2023-05-09T04:31:10.322Z,95102.00
2023-05-09T04:32:10.380Z,95102.00
2023-05-09T04:33:10.345Z,95100.00
2023-05-09T04:34:10.238Z,95102.00
2023-05-09T04:35:10.253Z,95104.00
2023-05-09T04:36:10.272Z,95102.00
2023-05-09T04:37:10.278Z,95102.00
2023-05-09T04:38:10.334Z,95102.00
2023-05-09T04:39:10.228Z,95098.00
2023-05-09T04:40:10.219Z,95100.00
2023-05-09T04:41:10.239Z,95098.00
2023-05-09T04:42:10.250Z,95094.00
2023-05-09T04:43:10.216Z,95096.00
2023-05-09T04:44:10.220Z,95092.00
2023-05-09T04:45:10.184Z,95096.00
2023-05-09T04:46:10.248Z,95094.00
2023-05-09T04:47:10.243Z,95094.00
2023-05-09T04:48:10.204Z,95092.00
2023-05-09T04:49:10.176Z,95092.00
2023-05-09T04:50:10.194Z,95090.00
2023-05-09T04:51:10.206Z,95090.00
2023-05-09T04:52:10.227Z,95088.00
2023-05-09T04:53:10.167Z,95088.00
2023-05-09T04:54:10.277Z,95086.00
2023-05-09T04:55:10.192Z,95088.00
2023-05-09T04:56:10.190Z,95088.00
2023-05-09T04:57:17.923Z,95088.00
2023-05-09T04:58:11.172Z,95090.00
2023-05-09T04:59:10.135Z,95092.00
2023-05-09T05:00:10.154Z,95088.00
2023-05-09T05:01:10.167Z,95088.00
2023-05-09T05:02:10.129Z,95090.00
2023-05-09T05:03:10.230Z,95090.00
2023-05-09T05:04:10.151Z,95090.00
2023-05-09T05:05:12.352Z,95088.00
2023-05-09T05:06:10.326Z,95090.00
2023-05-09T05:07:10.324Z,95090.00
2023-05-09T05:08:10.272Z,95090.00
2023-05-09T05:09:10.306Z,95090.00
2023-05-09T05:10:10.308Z,95090.00
2023-05-09T05:11:10.312Z,95088.00
2023-05-09T05:12:10.238Z,95086.00
2023-05-09T05:13:10.366Z,95084.00
2023-05-09T05:14:10.289Z,95088.00
2023-05-09T05:15:10.271Z,95084.00
2023-05-09T05:16:10.338Z,95084.00
2023-05-09T05:17:10.288Z,95082.00
2023-05-09T05:18:10.358Z,95082.00
2023-05-09T05:19:10.288Z,95082.00
2023-05-09T05:20:10.274Z,95084.00
2023-05-09T05:21:10.279Z,95084.00
2023-05-09T05:22:10.268Z,95082.00
2023-05-09T05:23:10.331Z,95082.00
2023-05-09T05:24:10.296Z,95082.00
2023-05-09T05:25:10.299Z,95082.00
2023-05-09T05:26:10.442Z,95088.00
2023-05-09T05:27:10.357Z,95088.00
2023-05-09T05:28:10.426Z,95086.00
2023-05-09T05:29:10.559Z,95088.00
2023-05-09T05:30:10.453Z,95082.00
2023-05-09T05:31:10.572Z,95082.00
2023-05-09T05:32:10.548Z,95086.00
2023-05-09T05:33:10.609Z,95084.00
2023-05-09T05:34:10.626Z,95086.00
2023-05-09T05:35:10.718Z,95088.00
2023-05-09T05:36:10.788Z,95090.00
2023-05-09T05:37:10.804Z,95090.00
2023-05-09T05:38:10.881Z,95090.00
2023-05-09T05:39:10.938Z,95090.00
2023-05-09T05:40:11.032Z,95088.00
2023-05-09T05:41:11.007Z,95092.00
2023-05-09T05:42:11.139Z,95092.00
2023-05-09T05:43:11.097Z,95094.00
2023-05-09T05:44:11.160Z,95092.00
2023-05-09T05:45:11.248Z,95094.00
2023-05-09T05:46:11.284Z,95096.00
2023-05-09T05:47:11.326Z,95092.00
2023-05-09T05:48:11.438Z,95090.00
2023-05-09T05:49:11.420Z,95090.00
2023-05-09T05:50:11.498Z,95104.00
2023-05-09T05:51:11.589Z,95102.00
2023-05-09T05:52:11.606Z,95100.00
2023-05-09T05:53:11.711Z,95100.00
2023-05-09T05:54:11.725Z,95100.00
2023-05-09T05:55:11.857Z,95084.00
2023-05-09T05:56:11.893Z,95086.00
2023-05-09T05:57:11.907Z,95086.00
2023-05-09T05:58:12.022Z,95086.00
2023-05-09T05:59:13.384Z,95082.00
2023-05-09T06:00:12.067Z,95082.00
2023-05-09T06:01:12.198Z,95084.00
2023-05-09T06:02:12.197Z,95082.00
2023-05-09T06:03:12.374Z,95086.00
2023-05-09T06:04:12.370Z,95082.00
2023-05-09T06:05:12.679Z,95080.00
2023-05-09T06:06:12.440Z,95078.00
2023-05-09T06:07:12.515Z,95076.00
2023-05-09T06:08:12.588Z,95076.00
2023-05-09T06:09:12.643Z,95074.00
2023-05-09T06:10:12.684Z,95074.00
2023-05-09T06:11:12.756Z,95072.00
2023-05-09T06:12:12.786Z,95072.00
2023-05-09T06:13:12.962Z,95072.00
2023-05-09T06:14:13.032Z,95072.00
2023-05-09T06:15:13.336Z,95074.00
2023-05-09T06:16:19.295Z,95072.00
2023-05-09T06:17:14.104Z,95072.00
2023-05-09T06:18:13.050Z,95072.00
2023-05-09T06:19:13.057Z,95068.00
2023-05-09T06:20:13.012Z,95072.00
2023-05-09T06:21:12.983Z,95078.00
2023-05-09T06:22:12.990Z,95082.00
2023-05-09T06:23:13.023Z,95082.00
2023-05-09T06:24:20.116Z,95084.00
2023-05-09T06:25:14.289Z,95082.00
2023-05-09T06:26:12.975Z,95084.00
2023-05-09T06:27:12.959Z,95084.00
2023-05-09T06:28:12.966Z,95084.00
2023-05-09T06:29:12.985Z,95082.00
2023-05-09T06:30:24.539Z,95086.00
2023-05-09T06:31:14.131Z,95084.00
2023-05-09T06:32:12.968Z,95080.00
2023-05-09T06:33:12.944Z,95080.00
2023-05-09T06:34:12.976Z,95080.00
2023-05-09T06:35:13.165Z,95074.00
2023-05-09T06:36:13.035Z,95072.00
2023-05-09T06:37:12.966Z,95070.00
2023-05-09T06:38:12.938Z,95055.00
2023-05-09T06:39:12.901Z,95058.00
2023-05-09T06:40:13.015Z,95055.00
2023-05-09T06:41:12.996Z,95057.00
2023-05-09T06:42:13.069Z,95057.00
2023-05-09T06:43:13.155Z,95055.00
2023-05-09T06:44:13.190Z,95055.00
2023-05-09T06:45:13.409Z,95055.00
2023-05-09T06:46:13.390Z,95053.00
2023-05-09T06:47:13.257Z,95055.00
2023-05-09T06:48:13.349Z,95055.00
2023-05-09T06:49:13.354Z,95051.00
2023-05-09T06:50:13.424Z,95053.00
2023-05-09T06:51:13.490Z,95053.00
2023-05-09T06:52:13.544Z,95053.00
2023-05-09T06:53:13.558Z,95053.00
2023-05-09T06:54:13.594Z,95051.00
2023-05-09T06:55:13.797Z,95051.00
2023-05-09T06:56:13.737Z,95051.00
2023-05-09T06:57:13.744Z,95049.00
2023-05-09T06:58:13.827Z,95045.00
2023-05-09T06:59:13.898Z,95047.00
2023-05-09T07:00:14.039Z,95045.00
2023-05-09T07:01:13.991Z,95045.00
2023-05-09T07:02:14.119Z,95045.00
2023-05-09T07:03:14.054Z,95045.00
2023-05-09T07:04:14.146Z,95045.00
2023-05-09T07:05:14.306Z,95047.00
2023-05-09T07:06:14.212Z,95045.00
2023-05-09T07:07:14.267Z,95047.00
2023-05-09T07:08:14.334Z,95045.00
2023-05-09T07:09:14.331Z,95045.00
2023-05-09T07:10:14.353Z,95045.00
2023-05-09T07:11:14.401Z,95045.00
2023-05-09T07:12:14.431Z,95047.00
2023-05-09T07:13:14.537Z,95045.00
2023-05-09T07:14:14.567Z,95043.00
2023-05-09T07:15:20.410Z,95045.00
2023-05-09T07:16:15.671Z,95043.00
2023-05-09T07:17:23.536Z,95039.00
2023-05-09T07:18:15.668Z,95043.00
2023-05-09T07:19:14.590Z,95041.00
2023-05-09T07:20:14.558Z,95037.00
2023-05-09T07:21:14.527Z,95043.00
2023-05-09T07:22:14.537Z,95039.00
2023-05-09T07:23:14.525Z,95039.00
2023-05-09T07:24:14.533Z,95035.00
2023-05-09T07:25:14.869Z,95031.00
2023-05-09T07:26:14.557Z,95035.00
2023-05-09T07:27:14.592Z,95029.00
2023-05-09T07:28:14.609Z,95033.00
2023-05-09T07:29:14.675Z,95031.00
2023-05-09T07:30:14.892Z,95031.00
2023-05-09T07:31:15.616Z,95029.00
2023-05-09T07:32:14.815Z,95031.00
2023-05-09T07:33:14.884Z,95031.00
2023-05-09T07:34:15.003Z,95029.00
2023-05-09T07:35:15.257Z,95025.00
2023-05-09T07:36:15.070Z,95027.00
2023-05-09T07:37:16.373Z,95023.00
2023-05-09T07:38:15.101Z,95023.00
2023-05-09T07:39:15.155Z,95023.00
2023-05-09T07:40:15.487Z,95019.00
2023-05-09T07:41:15.271Z,95019.00
2023-05-09T07:42:15.268Z,95019.00
2023-05-09T07:43:15.326Z,95019.00
2023-05-09T07:44:15.378Z,95018.00
2023-05-09T07:45:15.626Z,95016.00
2023-05-09T07:46:15.526Z,95016.00
2023-05-09T07:47:15.585Z,95011.00
2023-05-09T07:48:15.627Z,95013.00
2023-05-09T07:49:15.675Z,95011.00
2023-05-09T07:50:15.871Z,95010.00
2023-05-09T07:51:15.851Z,95010.00
2023-05-09T07:52:15.867Z,95008.00
2023-05-09T07:53:15.918Z,95006.00
2023-05-09T07:54:16.045Z,95004.00
2023-05-09T07:55:16.390Z,95002.00
2023-05-09T07:56:16.140Z,95002.00
2023-05-09T07:57:16.195Z,95000.00
2023-05-09T07:58:16.256Z,95000.00
2023-05-09T07:59:16.287Z,95000.00
2023-05-09T08:00:16.353Z,94998.00
2023-05-09T08:01:17.467Z,94998.00
2023-05-09T08:02:16.537Z,94996.00
2023-05-09T08:03:16.644Z,94996.00
2023-05-09T08:04:16.566Z,94994.00
2023-05-09T08:05:17.028Z,94992.00
2023-05-09T08:06:16.768Z,94990.00
2023-05-09T08:07:16.831Z,94988.00
2023-05-09T08:08:16.834Z,94984.00
2023-05-09T08:09:16.856Z,94982.00
2023-05-09T08:10:16.940Z,94982.00
2023-05-09T08:11:16.949Z,94982.00
2023-05-09T08:12:17.055Z,94980.00
2023-05-09T08:13:17.124Z,94980.00
2023-05-09T08:14:17.115Z,94980.00
2023-05-09T08:15:17.585Z,94978.00
2023-05-09T08:16:17.300Z,94978.00
2023-05-09T08:17:17.265Z,94976.00
2023-05-09T08:18:17.369Z,94974.00
2023-05-09T08:19:17.416Z,94972.00
2023-05-09T08:20:17.468Z,94969.00
2023-05-09T08:21:18.060Z,94967.00
2023-05-09T08:22:17.606Z,94965.00
2023-05-09T08:23:17.554Z,94961.00
2023-05-09T08:24:17.594Z,94957.00
2023-05-09T08:25:18.079Z,94955.00
2023-05-09T08:26:18.101Z,94957.00
2023-05-09T08:27:17.729Z,94957.00
2023-05-09T08:28:18.127Z,94951.00
2023-05-09T08:29:17.787Z,94955.00
2023-05-09T08:30:17.805Z,94951.00
2023-05-09T08:31:18.158Z,94949.00
2023-05-09T08:32:17.884Z,94947.00
2023-05-09T08:33:17.986Z,94943.00
2023-05-09T08:34:18.037Z,94943.00
2023-05-09T08:35:18.108Z,94943.00
2023-05-09T08:36:18.149Z,94939.00
2023-05-09T08:37:18.225Z,94933.00
2023-05-09T08:38:18.296Z,94931.00
2023-05-09T08:39:18.215Z,94927.00
2023-05-09T08:40:18.225Z,94925.00
2023-05-09T08:41:18.237Z,94921.00
2023-05-09T08:42:18.219Z,94919.00
2023-05-09T08:43:18.230Z,94921.00
2023-05-09T08:44:18.235Z,94919.00
2023-05-09T08:45:18.217Z,94917.00
2023-05-09T08:46:18.267Z,94910.00
2023-05-09T08:47:18.187Z,94910.00
2023-05-09T08:48:18.246Z,94917.00
2023-05-09T08:49:18.235Z,94927.00
2023-05-09T08:50:18.440Z,94925.00
2023-05-09T08:51:18.363Z,94923.00
2023-05-09T08:52:18.415Z,94921.00
2023-05-09T08:53:18.592Z,94919.00
2023-05-09T08:54:20.088Z,94919.00
2023-05-09T08:55:18.582Z,94919.00
2023-05-09T08:56:18.452Z,94921.00
2023-05-09T08:57:18.508Z,94917.00
2023-05-09T08:58:18.624Z,94917.00
2023-05-09T08:59:18.605Z,94921.00
2023-05-09T09:00:20.435Z,94923.00
2023-05-09T09:01:18.523Z,94921.00
2023-05-09T09:02:18.563Z,94917.00
2023-05-09T09:03:18.569Z,94910.00
2023-05-09T09:04:18.563Z,94904.00
2023-05-09T09:05:39.589Z,94900.00
2023-05-09T09:06:19.545Z,94896.00
2023-05-09T09:07:18.536Z,94892.00
2023-05-09T09:08:18.586Z,94888.00
2023-05-09T09:09:18.518Z,94886.00
2023-05-09T09:10:18.627Z,94884.00
2023-05-09T09:11:18.586Z,94884.00
2023-05-09T09:12:18.531Z,94884.00
2023-05-09T09:13:18.575Z,94880.00
2023-05-09T09:14:18.549Z,94882.00
2023-05-09T09:15:18.516Z,94884.00
2023-05-09T09:16:18.557Z,94880.00
2023-05-09T09:17:18.858Z,94879.00
2023-05-09T09:18:18.470Z,94879.00
2023-05-09T09:19:18.480Z,94873.00
2023-05-09T09:20:18.461Z,94871.00
2023-05-09T09:21:18.470Z,94867.00
2023-05-09T09:22:18.466Z,94867.00
2023-05-09T09:23:18.418Z,94867.00
2023-05-09T09:24:18.398Z,94865.00
2023-05-09T09:25:18.447Z,94867.00
2023-05-09T09:26:18.602Z,94865.00
2023-05-09T09:27:18.550Z,94863.00
2023-05-09T09:28:18.670Z,94865.00
2023-05-09T09:29:18.690Z,94861.00
2023-05-09T09:30:18.739Z,94859.00
2023-05-09T09:31:18.841Z,94847.00
2023-05-09T09:32:18.865Z,94843.00
2023-05-09T09:33:18.969Z,94841.00
2023-05-09T09:34:18.972Z,94839.00
2023-05-09T09:35:19.013Z,94847.00
2023-05-09T09:36:18.992Z,94847.00
2023-05-09T09:37:19.024Z,94847.00
2023-05-09T09:38:19.020Z,94841.00
2023-05-09T09:39:19.162Z,94843.00
2023-05-09T09:40:19.212Z,94833.00
2023-05-09T09:41:19.235Z,94832.00
2023-05-09T09:42:19.400Z,94830.00
2023-05-09T09:43:19.385Z,94825.00
2023-05-09T09:44:19.658Z,94822.00
2023-05-09T09:45:19.487Z,94822.00
2023-05-09T09:46:19.552Z,94820.00
2023-05-09T09:47:19.614Z,94816.00
2023-05-09T09:48:19.646Z,94814.00
2023-05-09T09:49:19.714Z,94812.00
2023-05-09T09:50:19.826Z,94808.00
2023-05-09T09:51:19.841Z,94808.00
2023-05-09T09:52:19.913Z,94810.00
2023-05-09T09:53:19.968Z,94808.00
2023-05-09T09:54:20.015Z,94806.00
2023-05-09T09:55:20.061Z,94802.00
2023-05-09T09:56:20.155Z,94800.00
2023-05-09T09:57:20.186Z,94798.00
2023-05-09T09:58:20.345Z,94794.00
2023-05-09T09:59:20.328Z,94792.00
2023-05-09T10:00:20.380Z,94790.00
2023-05-09T10:01:20.499Z,94790.00
2023-05-09T10:02:20.475Z,94786.00
2023-05-09T10:03:20.714Z,94771.00
2023-05-09T10:04:20.612Z,94769.00
2023-05-09T10:05:20.657Z,94771.00
2023-05-09T10:06:20.769Z,94769.00
2023-05-09T10:07:20.774Z,94761.00
2023-05-09T10:08:20.852Z,94761.00
2023-05-09T10:09:20.894Z,94759.00
2023-05-09T10:10:20.966Z,94757.00
2023-05-09T10:11:21.097Z,94757.00
2023-05-09T10:12:21.111Z,94755.00
2023-05-09T10:13:21.305Z,94755.00
2023-05-09T10:14:21.241Z,94755.00
2023-05-09T10:15:21.247Z,94753.00
2023-05-09T10:16:28.506Z,94749.00
2023-05-09T10:17:22.553Z,94749.00
2023-05-09T10:18:21.451Z,94745.00
2023-05-09T10:19:21.276Z,94743.00
2023-05-09T10:20:21.252Z,94739.00
2023-05-09T10:21:21.269Z,94739.00
2023-05-09T10:22:21.248Z,94738.00
2023-05-09T10:23:21.247Z,94736.00
2023-05-09T10:24:21.239Z,94736.00
2023-05-09T10:25:21.264Z,94732.00
2023-05-09T10:26:21.223Z,94730.00
2023-05-09T10:27:21.301Z,94726.00
2023-05-09T10:28:21.215Z,94722.00
2023-05-09T10:29:21.233Z,94718.00
2023-05-09T10:30:21.351Z,94718.00
2023-05-09T10:31:21.404Z,94730.00
2023-05-09T10:32:21.428Z,94726.00
2023-05-09T10:33:21.470Z,94726.00
2023-05-09T10:34:21.564Z,94728.00
2023-05-09T10:35:21.587Z,94724.00
2023-05-09T10:36:21.617Z,94724.00
2023-05-09T10:37:21.733Z,94722.00
2023-05-09T10:38:21.769Z,94722.00
2023-05-09T10:39:22.124Z,94720.00
2023-05-09T10:40:21.904Z,94716.00
2023-05-09T10:41:22.032Z,94714.00
2023-05-09T10:42:22.022Z,94716.00
2023-05-09T10:43:22.065Z,94714.00
2023-05-09T10:44:22.148Z,94710.00
2023-05-09T10:45:22.224Z,94706.00
2023-05-09T10:46:22.384Z,94694.00
2023-05-09T10:47:22.340Z,94691.00
2023-05-09T10:48:22.366Z,94702.00
2023-05-09T10:49:22.451Z,94698.00
2023-05-09T10:50:22.524Z,94696.00
2023-05-09T10:51:22.517Z,94692.00
2023-05-09T10:52:22.578Z,94689.00
2023-05-09T10:53:22.658Z,94689.00
2023-05-09T10:54:22.716Z,94687.00
2023-05-09T10:55:22.741Z,94685.00
2023-05-09T10:56:22.830Z,94683.00
2023-05-09T10:57:22.855Z,94679.00
2023-05-09T10:58:22.928Z,94679.00
2023-05-09T10:59:23.022Z,94675.00
2023-05-09T11:00:23.023Z,94671.00
2023-05-09T11:01:23.170Z,94669.00
2023-05-09T11:02:23.284Z,94665.00
2023-05-09T11:03:23.347Z,94661.00
2023-05-09T11:04:23.277Z,94649.00
2023-05-09T11:05:23.304Z,94651.00
2023-05-09T11:06:23.353Z,94647.00
2023-05-09T11:07:23.428Z,94647.00
2023-05-09T11:08:23.491Z,94646.00
2023-05-09T11:09:23.540Z,94642.00
2023-05-09T11:10:23.586Z,94642.00
2023-05-09T11:11:23.672Z,94640.00
2023-05-09T11:12:23.675Z,94636.00
2023-05-09T11:13:24.157Z,94632.00
2023-05-09T11:14:23.827Z,94628.00
2023-05-09T11:15:23.911Z,94626.00
2023-05-09T11:16:24.032Z,94626.00
2023-05-09T11:17:24.025Z,94608.00
2023-05-09T11:18:24.129Z,94610.00
2023-05-09T11:19:24.123Z,94610.00
2023-05-09T11:20:24.682Z,94606.00
2023-05-09T11:21:24.623Z,94602.00
2023-05-09T11:22:24.641Z,94602.00
2023-05-09T11:23:24.635Z,94595.00
2023-05-09T11:24:24.655Z,94595.00
2023-05-09T11:25:24.457Z,94597.00
2023-05-09T11:26:24.523Z,94593.00
2023-05-09T11:27:24.595Z,94591.00
2023-05-09T11:28:24.645Z,94587.00
2023-05-09T11:29:24.672Z,94581.00
2023-05-09T11:30:24.771Z,94581.00
2023-05-09T11:31:24.872Z,94579.00
2023-05-09T11:32:24.911Z,94577.00
2023-05-09T11:33:24.921Z,94577.00
2023-05-09T11:34:25.034Z,94575.00
2023-05-09T11:35:25.056Z,94575.00
2023-05-09T11:36:25.066Z,94573.00
2023-05-09T11:37:25.117Z,94573.00
2023-05-09T11:38:25.165Z,94575.00
2023-05-09T11:39:25.144Z,94573.00
2023-05-09T11:40:25.186Z,94571.00
2023-05-09T11:41:25.139Z,94571.00
2023-05-09T11:42:25.106Z,94569.00
2023-05-09T11:43:25.110Z,94565.00
2023-05-09T11:44:25.104Z,94563.00